Time;durP1;ratioP1;P1;durP2;ratioP2;P2;SDS_P1;SDS_P2;PMS_P1;PMS_P2;Temp;Humidity;BMP_temperature;BMP_pressure;BME280_temperature;BME280_humidity;BME280_pressure;Samples;Min_cycle;Max_cycle;Signal;HPM_P1;HPM_P2
2024/01/24 00:01:58;;;;;;;2.30;1.50;;;;;;;3.20;71.63;93768.94;4844413;29;20566;-80
2024/01/24 00:04:24;;;;;;;2.60;1.42;;;;;;;3.22;70.38;93758.38;4844147;29;20510;-80
2024/01/24 00:06:50;;;;;;;3.42;1.40;;;;;;;3.25;70.78;93758.75;4833026;29;20436;-78
2024/01/24 00:09:16;;;;;;;2.05;1.33;;;;;;;3.22;70.69;93761.78;4839762;29;20068;-80
2024/01/24 00:11:41;;;;;;;6.63;3.22;;;;;;;3.31;69.63;93763.09;4844021;29;20038;-81
2024/01/24 00:14:07;;;;;;;5.43;2.33;;;;;;;3.36;68.90;93762.47;4827615;29;20502;-81
2024/01/24 00:16:33;;;;;;;2.10;1.30;;;;;;;3.40;70.17;93768.81;4841652;29;20475;-81
2024/01/24 00:19:01;;;;;;;1.90;1.30;;;;;;;3.39;70.42;93767.22;4843707;29;20038;-79
2024/01/24 00:21:26;;;;;;;2.65;1.35;;;;;;;3.37;71.04;93769.22;4843771;29;20046;-80
2024/01/24 00:23:52;;;;;;;2.08;1.20;;;;;;;3.36;69.91;93769.44;4842033;29;20069;-79
2024/01/24 00:26:17;;;;;;;1.48;1.08;;;;;;;3.36;69.67;93775.41;4843833;29;20055;-81
2024/01/24 00:28:43;;;;;;;1.65;1.10;;;;;;;3.37;69.14;93779.56;4845360;29;20094;-81
2024/01/24 00:31:09;;;;;;;1.90;1.20;;;;;;;3.36;69.04;93775.41;4843978;29;20077;-79
2024/01/24 00:33:34;;;;;;;1.40;0.98;;;;;;;3.36;68.80;93772.81;4843594;29;20535;-81
2024/01/24 00:36:04;;;;;;;0.80;0.80;;;;;;;3.40;68.89;93757.66;4843782;29;20038;-80
2024/01/24 00:38:29;;;;;;;1.83;1.10;;;;;;;3.41;69.18;93752.28;4800905;29;20058;-81
2024/01/24 00:40:55;;;;;;;2.35;1.05;;;;;;;3.41;69.23;93749.69;4823032;29;20443;-80
2024/01/24 00:43:21;;;;;;;1.60;1.10;;;;;;;3.38;70.12;93755.28;4824799;29;20107;-80
2024/01/24 00:45:47;;;;;;;2.10;1.00;;;;;;;3.39;69.55;93753.47;4823453;29;20042;-82
2024/01/24 00:48:12;;;;;;;1.38;1.00;;;;;;;3.36;70.44;93744.34;4825528;29;20049;-80
2024/01/24 00:50:38;;;;;;;2.65;1.05;;;;;;;3.37;70.68;93758.06;4829262;29;20041;-79
2024/01/24 00:53:06;;;;;;;1.05;0.80;;;;;;;3.33;72.77;93753.34;4828083;29;20053;-81
2024/01/24 00:55:32;;;;;;;1.42;0.90;;;;;;;3.30;72.52;93758.91;4828643;29;20042;-79
2024/01/24 00:58:00;;;;;;;1.13;0.85;;;;;;;3.29;73.02;93766.91;4825397;29;20038;-79
2024/01/24 01:00:26;;;;;;;1.85;0.80;;;;;;;3.24;73.16;93764.13;4827292;29;20050;-80
2024/01/24 01:02:51;;;;;;;1.77;0.98;;;;;;;3.16;73.19;93756.63;4828695;29;20584;-80
2024/01/24 01:05:17;;;;;;;0.90;0.80;;;;;;;3.18;72.88;93765.78;4828100;29;20045;-79
2024/01/24 01:07:42;;;;;;;1.50;0.95;;;;;;;3.19;73.46;93761.38;4812412;29;20050;-80
2024/01/24 01:10:09;;;;;;;1.98;0.88;;;;;;;3.19;73.93;93748.44;4829225;29;20124;-80
2024/01/24 01:12:34;;;;;;;1.13;0.90;;;;;;;3.17;73.07;93751.22;4828692;29;20069;-82
2024/01/24 01:15:00;;;;;;;1.20;0.90;;;;;;;3.12;73.89;93751.06;4826845;29;20042;-81
2024/01/24 01:17:26;;;;;;;1.42;0.98;;;;;;;3.08;73.72;93750.69;4828802;29;20038;-80
2024/01/24 01:19:51;;;;;;;1.13;0.90;;;;;;;3.10;74.35;93756.44;4828779;29;20035;-81
2024/01/24 01:22:18;;;;;;;1.55;0.90;;;;;;;3.07;75.18;93738.75;4828144;29;20047;-80
2024/01/24 01:24:45;;;;;;;1.23;0.80;;;;;;;3.07;73.74;93751.69;4828165;29;20071;-79
2024/01/24 01:27:11;;;;;;;1.38;0.75;;;;;;;3.07;74.14;93748.31;4828226;29;20038;-80
2024/01/24 01:29:37;;;;;;;1.20;0.88;;;;;;;3.07;74.27;93749.13;4826885;29;20072;-81
2024/01/24 01:32:03;;;;;;;0.73;0.73;;;;;;;3.13;74.12;93745.69;4826843;29;20106;-80
2024/01/24 01:34:28;;;;;;;1.20;0.90;;;;;;;3.13;73.99;93745.69;4828756;29;20495;-79
2024/01/24 01:36:54;;;;;;;0.70;0.70;;;;;;;3.03;73.65;93736.81;4826791;29;20046;-79
2024/01/24 01:39:19;;;;;;;1.10;0.98;;;;;;;3.09;74.36;93752.28;4846673;29;20125;-80
2024/01/24 01:41:46;;;;;;;0.70;0.70;;;;;;;3.04;74.77;93749.53;4843567;29;20179;-79
2024/01/24 01:44:12;;;;;;;1.23;0.82;;;;;;;3.03;74.22;93747.16;4844558;29;20044;-80
2024/01/24 01:46:38;;;;;;;0.90;0.70;;;;;;;3.01;74.35;93744.75;4845741;29;20030;-79
2024/01/24 01:49:04;;;;;;;1.15;0.82;;;;;;;2.98;74.85;93742.59;4826500;29;20060;-81
2024/01/24 01:51:30;;;;;;;1.95;0.85;;;;;;;2.88;75.91;93730.13;4845602;29;20034;-79
2024/01/24 01:53:58;;;;;;;2.40;0.80;;;;;;;2.88;75.72;93726.72;4826949;29;20026;-80
2024/01/24 01:56:25;;;;;;;3.10;1.50;;;;;;;2.93;77.11;93739.84;4846656;29;20471;-80
2024/01/24 01:58:51;;;;;;;4.22;2.10;;;;;;;2.92;77.24;93733.88;4825341;29;20061;-81
2024/01/24 02:01:18;;;;;;;3.25;1.75;;;;;;;2.88;78.27;93730.13;4845247;29;20550;-79
2024/01/24 02:03:47;;;;;;;3.10;1.50;;;;;;;2.85;79.77;93729.75;4824066;29;20065;-79
2024/01/24 02:06:13;;;;;;;2.28;1.30;;;;;;;2.80;79.19;93722.59;4811195;29;20084;-79
2024/01/24 02:08:39;;;;;;;1.98;1.20;;;;;;;2.74;79.49;93725.22;4845655;29;20033;-79
2024/01/24 02:11:06;;;;;;;1.73;0.90;;;;;;;2.71;79.10;93714.31;4845849;29;20042;-78
2024/01/24 02:13:32;;;;;;;0.93;0.82;;;;;;;2.67;80.88;93722.69;4822546;29;20066;-79
2024/01/24 02:16:07;;;;;;;1.00;0.77;;;;;;;2.61;79.96;93719.16;4846116;29;20580;-80
2024/01/24 02:18:33;;;;;;;1.15;0.90;;;;;;;2.60;79.69;93701.25;4844918;29;20053;-80
2024/01/24 02:20:59;;;;;;;3.03;0.93;;;;;;;2.57;80.00;93712.78;4841165;29;20443;-80
2024/01/24 02:23:26;;;;;;;0.85;0.80;;;;;;;2.55;80.10;93714.78;4842747;29;20064;-80
2024/01/24 02:25:53;;;;;;;1.52;0.90;;;;;;;2.53;80.71;93711.63;4846124;29;20042;-81
2024/01/24 02:28:19;;;;;;;1.73;1.02;;;;;;;2.52;80.54;93715.19;4845202;29;20084;-80
2024/01/24 02:30:45;;;;;;;1.63;0.90;;;;;;;2.55;79.64;93711.41;4829191;29;20034;-80
2024/01/24 02:33:11;;;;;;;0.73;0.70;;;;;;;2.56;79.52;93711.19;4845101;29;20041;-80
2024/01/24 02:35:36;;;;;;;1.63;0.95;;;;;;;2.59;79.82;93710.78;4815119;29;20038;-80
2024/01/24 02:38:02;;;;;;;1.00;0.90;;;;;;;2.61;79.82;93713.97;4837587;29;20214;-81
2024/01/24 02:40:28;;;;;;;1.13;0.90;;;;;;;2.60;80.19;93717.53;4845706;29;20132;-79
2024/01/24 02:42:53;;;;;;;1.45;1.00;;;;;;;2.56;79.51;93705.25;4837658;29;20490;-80
2024/01/24 02:45:19;;;;;;;1.40;0.90;;;;;;;2.52;78.19;93698.88;4843991;29;20426;-81
2024/01/24 02:47:45;;;;;;;1.60;1.10;;;;;;;2.53;77.55;93716.00;4844894;29;20182;-79
2024/01/24 02:50:11;;;;;;;0.98;0.90;;;;;;;2.54;77.00;93699.47;4845707;29;20899;-79
2024/01/24 02:52:38;;;;;;;1.02;0.90;;;;;;;2.56;77.27;93681.97;4845275;29;20030;-79
2024/01/24 02:55:04;;;;;;;1.38;0.90;;;;;;;2.55;76.64;93686.34;4845542;29;20406;-81
2024/01/24 02:57:29;;;;;;;3.15;1.00;;;;;;;2.54;76.13;93682.16;4844106;29;20062;-79
2024/01/24 02:59:55;;;;;;;1.85;1.10;;;;;;;2.53;77.12;93677.22;4845336;29;20044;-80
2024/01/24 03:02:20;;;;;;;2.35;1.38;;;;;;;2.59;76.75;93682.38;4845325;29;20121;-81
2024/01/24 03:04:46;;;;;;;1.25;1.00;;;;;;;2.64;78.07;93685.09;4843212;29;20045;-80
2024/01/24 03:07:11;;;;;;;1.52;1.23;;;;;;;2.63;77.56;93683.50;4845340;29;20109;-81
2024/01/24 03:09:37;;;;;;;3.03;1.42;;;;;;;2.54;78.65;93666.66;4845253;29;20037;-80
2024/01/24 03:12:03;;;;;;;1.83;1.17;;;;;;;2.56;78.39;93659.50;4844200;29;20273;-81
2024/01/24 03:14:28;;;;;;;1.00;0.90;;;;;;;2.57;79.55;93671.44;4829423;29;20041;-80
2024/01/24 03:16:54;;;;;;;1.80;1.00;;;;;;;2.52;79.02;93666.06;4844522;29;20411;-80
2024/01/24 03:19:20;;;;;;;1.50;1.10;;;;;;;2.51;78.60;93656.75;4844746;29;20082;-79
2024/01/24 03:21:46;;;;;;;1.92;1.25;;;;;;;2.54;77.37;93656.31;4845048;29;20042;-78
2024/01/24 03:24:12;;;;;;;1.33;0.93;;;;;;;2.54;78.86;93656.31;4844180;29;20385;-80
2024/01/24 03:26:37;;;;;;;2.05;1.20;;;;;;;2.53;78.59;93647.00;4844173;29;20060;-78
2024/01/24 03:29:03;;;;;;;1.77;1.30;;;;;;;2.52;77.61;93658.31;4844338;29;20046;-81
2024/01/24 03:31:28;;;;;;;1.27;1.00;;;;;;;2.50;77.61;93644.84;4842912;29;20094;-80
2024/01/24 03:33:54;;;;;;;2.15;1.10;;;;;;;2.49;77.84;93638.84;4828122;29;20529;-79
2024/01/24 03:36:20;;;;;;;1.45;1.00;;;;;;;2.50;77.70;93639.66;4843380;29;20030;-79
2024/01/24 03:38:46;;;;;;;1.40;1.00;;;;;;;2.50;79.17;93645.63;4843827;29;20588;-81
2024/01/24 03:41:11;;;;;;;1.65;1.00;;;;;;;2.47;80.54;93638.25;4843302;29;20046;-80
2024/01/24 03:43:40;;;;;;;2.78;1.15;;;;;;;2.44;79.76;93637.91;4843341;29;20517;-81
2024/01/24 03:46:06;;;;;;;4.45;1.50;;;;;;;2.48;80.30;93647.63;4828197;29;20098;-80
2024/01/24 03:48:32;;;;;;;6.50;3.55;;;;;;;2.48;80.84;93641.66;4842522;29;20546;-81
2024/01/24 03:50:58;;;;;;;7.78;4.47;;;;;;;2.48;79.70;93631.31;4845533;29;20114;-80
2024/01/24 03:53:24;;;;;;;6.00;3.47;;;;;;;2.39;78.91;93622.22;4821810;29;20046;-81
2024/01/24 03:55:50;;;;;;;3.83;2.10;;;;;;;2.45;78.19;93635.09;4844820;29;20094;-82
2024/01/24 03:58:16;;;;;;;5.47;2.65;;;;;;;2.43;77.26;93633.72;4843714;29;20446;-82
2024/01/24 04:00:42;;;;;;;4.93;2.10;;;;;;;2.46;76.29;93635.91;4844463;29;20026;-81
2024/01/24 04:03:07;;;;;;;4.88;2.10;;;;;;;2.46;75.75;93634.09;4835318;29;20038;-81
2024/01/24 04:05:33;;;;;;;4.22;2.08;;;;;;;2.49;74.82;93635.47;4828373;29;20402;-80
2024/01/24 04:08:00;;;;;;;3.40;1.90;;;;;;;2.49;74.25;93619.97;4843044;29;20058;-81
2024/01/24 04:10:25;;;;;;;2.78;1.45;;;;;;;2.49;74.14;93625.13;4842198;29;20046;-80
2024/01/24 04:12:51;;;;;;;3.58;1.30;;;;;;;2.47;73.74;93619.38;4837802;29;20060;-78
2024/01/24 04:15:16;;;;;;;2.97;1.48;;;;;;;2.47;73.32;93619.38;4843663;29;20129;-80
2024/01/24 04:17:42;;;;;;;2.28;1.40;;;;;;;2.49;73.03;93618.16;4827358;29;20534;-81
2024/01/24 04:20:08;;;;;;;1.98;1.15;;;;;;;2.50;72.68;93609.44;4843674;29;20041;-79
2024/01/24 04:22:35;;;;;;;2.58;1.50;;;;;;;2.56;73.64;93607.78;4827048;29;20033;-81
2024/01/24 04:25:00;;;;;;;3.63;1.50;;;;;;;2.61;75.07;93599.41;4831384;29;20045;-79
2024/01/24 04:27:27;;;;;;;4.20;1.70;;;;;;;2.61;75.04;93602.81;4848166;29;20053;-77
2024/01/24 04:29:53;;;;;;;2.90;1.63;;;;;;;2.61;74.90;93600.22;4830873;29;20042;-80
2024/01/24 04:32:19;;;;;;;6.20;2.20;;;;;;;2.66;75.12;93610.72;4830582;29;20038;-80
2024/01/24 04:34:44;;;;;;;4.13;2.20;;;;;;;2.64;75.27;93607.53;4846158;29;20045;-82
2024/01/24 04:37:10;;;;;;;5.18;2.20;;;;;;;2.64;76.76;93596.41;4814768;29;20153;-81
2024/01/24 04:39:35;;;;;;;3.15;1.77;;;;;;;2.62;76.96;93595.84;4846478;29;20056;-81
2024/01/24 04:42:01;;;;;;;4.97;2.17;;;;;;;2.59;76.93;93594.47;4846477;29;20178;-77
2024/01/24 04:44:27;;;;;;;4.90;2.20;;;;;;;2.60;77.19;93598.63;4846470;29;20053;-81
2024/01/24 04:46:52;;;;;;;2.83;1.60;;;;;;;2.61;77.57;93604.56;4847915;29;20052;-81
2024/01/24 04:49:18;;;;;;;3.45;1.45;;;;;;;2.57;78.45;93593.88;4847552;29;20030;-79
2024/01/24 04:51:44;;;;;;;3.40;1.50;;;;;;;2.56;78.93;93592.28;4829496;29;20135;-79
2024/01/24 04:54:10;;;;;;;2.13;1.27;;;;;;;2.57;78.34;93595.66;4846104;29;20042;-80
2024/01/24 04:56:43;;;;;;;1.58;1.10;;;;;;;2.54;77.74;93593.50;4846131;29;20057;-80
2024/01/24 04:59:09;;;;;;;3.83;1.10;;;;;;;2.56;76.79;93600.03;4846882;29;20053;-81
2024/01/24 05:01:35;;;;;;;1.48;1.05;;;;;;;2.56;76.64;93601.84;4845073;29;20040;-81
2024/01/24 05:04:01;;;;;;;4.28;1.73;;;;;;;2.57;76.61;93611.97;4846573;29;20050;-82
2024/01/24 05:06:26;;;;;;;3.97;1.77;;;;;;;2.56;76.07;93620.72;4830202;29;20187;-81
2024/01/24 05:08:53;;;;;;;3.53;1.58;;;;;;;2.56;75.67;93625.88;4846614;29;20083;-80
2024/01/24 05:11:20;;;;;;;2.80;1.50;;;;;;;2.56;75.43;93620.72;4846669;29;20037;-80
2024/01/24 05:13:45;;;;;;;2.97;1.60;;;;;;;2.58;75.04;93612.75;4846026;29;20041;-80
2024/01/24 05:16:11;;;;;;;2.03;1.35;;;;;;;2.59;74.75;93616.91;4846485;29;20063;-81
2024/01/24 05:18:36;;;;;;;1.98;1.23;;;;;;;2.59;74.22;93607.38;4846922;29;20384;-79
2024/01/24 05:21:02;;;;;;;1.23;1.05;;;;;;;2.58;73.87;93605.00;4846642;29;20060;-79
2024/01/24 05:23:28;;;;;;;1.60;0.90;;;;;;;2.59;72.99;93609.16;4811707;29;20045;-81
2024/01/24 05:25:53;;;;;;;1.35;1.10;;;;;;;2.62;73.30;93601.78;4829251;29;20073;-81
2024/01/24 05:28:19;;;;;;;2.25;1.27;;;;;;;2.67;73.45;93604.53;4814539;29;20038;-81
2024/01/24 05:30:45;;;;;;;4.50;1.40;;;;;;;2.58;73.99;93584.31;4846377;29;20076;-80
2024/01/24 05:33:10;;;;;;;2.35;1.15;;;;;;;2.66;74.30;93595.22;4840598;29;20237;-81
2024/01/24 05:35:36;;;;;;;3.60;1.38;;;;;;;2.65;75.01;93593.59;4829192;29;20404;-81
2024/01/24 05:38:02;;;;;;;1.55;1.05;;;;;;;2.66;74.21;93590.03;4845629;29;20430;-81
2024/01/24 05:40:27;;;;;;;1.48;1.10;;;;;;;2.67;73.52;93591.59;4845942;29;20049;-79
2024/01/24 05:42:53;;;;;;;2.20;1.17;;;;;;;2.67;73.44;93593.41;4843992;29;20105;-79
2024/01/24 05:45:19;;;;;;;2.03;1.00;;;;;;;2.68;73.17;93593.19;4843199;29;20073;-80
2024/01/24 05:47:44;;;;;;;2.25;1.20;;;;;;;2.68;73.69;93590.63;4823739;29;20454;-82
2024/01/24 05:50:13;;;;;;;1.10;0.95;;;;;;;2.70;74.02;93591.19;4799829;29;20099;-83
2024/01/24 05:52:43;;;;;;;2.30;1.17;;;;;;;2.70;73.80;93596.38;4821280;29;20129;-82
2024/01/24 05:55:11;;;;;;;1.85;1.20;;;;;;;2.81;74.43;93610.41;4840988;29;20549;-82
2024/01/24 05:57:39;;;;;;;1.92;0.80;;;;;;;2.81;74.19;93607.03;4839596;29;20037;-80
2024/01/24 06:00:10;;;;;;;1.55;0.90;;;;;;;2.79;73.89;93606.44;4840979;29;20068;-79
2024/01/24 06:02:38;;;;;;;1.58;0.93;;;;;;;2.75;73.69;93606.09;4834684;29;20098;-80
2024/01/24 06:05:04;;;;;;;1.92;1.17;;;;;;;2.75;73.71;93605.28;4819891;29;20049;-80
2024/01/24 06:07:31;;;;;;;2.13;0.90;;;;;;;2.75;73.24;93600.09;4819537;29;20607;-80
2024/01/24 06:09:57;;;;;;;1.40;0.90;;;;;;;2.80;73.49;93600.28;4839422;29;20073;-82
2024/01/24 06:12:23;;;;;;;1.13;0.90;;;;;;;2.86;73.93;93607.19;4822033;29;20033;-84
2024/01/24 06:14:49;;;;;;;1.35;1.10;;;;;;;2.85;73.19;93600.44;4841211;29;20089;-81
2024/01/24 06:17:15;;;;;;;1.55;1.00;;;;;;;2.83;73.14;93597.25;4839587;29;20030;-81
2024/01/24 06:19:42;;;;;;;0.80;0.80;;;;;;;2.79;73.33;93601.25;4833292;29;20113;-80
2024/01/24 06:22:09;;;;;;;2.25;0.80;;;;;;;2.71;73.89;93585.00;4840434;29;20499;-82
2024/01/24 06:24:35;;;;;;;2.47;1.02;;;;;;;2.77;74.16;93595.50;4840124;29;20037;-81
2024/01/24 06:27:01;;;;;;;1.55;0.98;;;;;;;2.78;74.48;93592.72;4836775;29;20038;-80
2024/01/24 06:29:27;;;;;;;1.40;1.00;;;;;;;2.81;75.21;93594.09;4836196;29;20178;-80
2024/01/24 06:31:53;;;;;;;1.23;0.82;;;;;;;2.82;75.53;93600.88;4842403;29;20042;-79
2024/01/24 06:34:18;;;;;;;0.73;0.70;;;;;;;2.79;76.02;93596.09;4843623;29;20045;-80
2024/01/24 06:36:44;;;;;;;1.50;0.90;;;;;;;2.79;75.87;93593.50;4847552;29;20063;-79
2024/01/24 06:39:10;;;;;;;1.15;0.85;;;;;;;2.77;76.23;93595.50;4825839;29;20191;-80
2024/01/24 06:41:36;;;;;;;5.18;1.00;;;;;;;2.67;76.34;93599.34;4811883;29;20071;-80
2024/01/24 06:44:05;;;;;;;1.45;1.10;;;;;;;2.68;77.58;93608.72;4832913;29;20061;-80
2024/01/24 06:46:31;;;;;;;1.08;0.98;;;;;;;2.67;77.74;93609.69;4837174;29;20041;-81
2024/01/24 06:48:57;;;;;;;0.80;0.80;;;;;;;2.66;79.12;93595.22;4843363;29;20077;-80
2024/01/24 06:51:22;;;;;;;2.10;1.02;;;;;;;2.68;79.21;93603.53;4837925;29;20049;-81
2024/01/24 06:53:48;;;;;;;1.10;1.00;;;;;;;2.67;77.91;93585.66;4836848;29;20046;-81
2024/01/24 06:56:14;;;;;;;1.05;0.90;;;;;;;2.69;78.61;93592.19;4811425;29;20041;-79
2024/01/24 06:58:42;;;;;;;1.40;0.93;;;;;;;2.73;79.37;93596.97;4841628;29;20066;-81
2024/01/24 07:01:08;;;;;;;1.63;1.10;;;;;;;2.79;78.29;93601.25;4825369;29;20042;-80
2024/01/24 07:03:34;;;;;;;1.23;0.85;;;;;;;2.83;77.69;93598.06;4822255;29;20040;-80
2024/01/24 07:05:59;;;;;;;1.27;0.85;;;;;;;2.87;77.12;93588.09;4827295;29;20069;-79
2024/01/24 07:08:25;;;;;;;1.15;0.88;;;;;;;2.94;77.43;93588.81;4843141;29;20045;-80
2024/01/24 07:10:51;;;;;;;0.85;0.80;;;;;;;3.05;78.85;93588.13;4811531;29;20041;-81
2024/01/24 07:13:16;;;;;;;1.05;0.95;;;;;;;3.24;78.92;93590.75;4820903;29;20469;-80
2024/01/24 07:15:42;;;;;;;0.70;0.70;;;;;;;3.43;78.02;93597.53;4843150;29;20038;-82
2024/01/24 07:18:09;;;;;;;1.15;0.90;;;;;;;4.02;76.46;93589.31;4841781;29;20037;-81
2024/01/24 07:20:36;;;;;;;1.70;0.90;;;;;;;4.58;75.30;93585.56;4842136;29;20133;-81
2024/01/24 07:23:02;;;;;;;1.55;1.00;;;;;;;4.96;73.34;93587.00;4842334;29;20082;-81
2024/01/24 07:25:27;;;;;;;1.75;1.00;;;;;;;5.38;71.53;93592.88;4843315;29;20042;-81
2024/01/24 07:27:53;;;;;;;1.45;0.80;;;;;;;5.35;69.19;93592.53;4810227;29;20056;-80
2024/01/24 07:30:22;;;;;;;1.13;0.90;;;;;;;6.12;67.20;93609.72;4844552;29;20048;-81
2024/01/24 07:32:48;;;;;;;1.05;0.80;;;;;;;7.03;62.43;93594.16;4842262;29;20080;-81
2024/01/24 07:35:14;;;;;;;2.15;1.00;;;;;;;7.84;57.57;93604.16;4831645;29;20434;-81
2024/01/24 07:37:41;;;;;;;2.25;1.00;;;;;;;8.83;51.99;93607.63;4831585;29;20050;-82
2024/01/24 07:40:07;;;;;;;1.20;1.10;;;;;;;9.91;45.85;93607.34;4842203;29;20057;-78
2024/01/24 07:42:33;;;;;;;1.63;1.20;;;;;;;10.92;43.40;93600.09;4841664;29;20113;-81
2024/01/24 07:44:59;;;;;;;1.50;1.00;;;;;;;11.84;40.38;93609.72;4842620;29;20077;-81
2024/01/24 07:47:25;;;;;;;1.27;1.08;;;;;;;12.97;39.71;93594.28;4824136;29;20038;-83
2024/01/24 07:49:50;;;;;;;1.08;0.90;;;;;;;13.76;36.17;93596.81;4823733;29;20057;-81
2024/01/24 07:52:16;;;;;;;1.70;1.27;;;;;;;14.25;35.05;93590.50;4841147;29;20037;-81
2024/01/24 07:54:42;;;;;;;0.98;0.90;;;;;;;15.29;34.78;93593.31;4843836;29;20038;-82
2024/01/24 07:57:07;;;;;;;1.52;1.00;;;;;;;15.98;31.75;93599.56;4842537;29;20049;-82
2024/01/24 07:59:34;;;;;;;4.30;1.80;;;;;;;16.80;31.39;93589.28;4841919;29;20120;-82
2024/01/24 08:01:59;;;;;;;5.05;2.55;;;;;;;16.62;32.28;93598.88;4840362;29;20037;-83
2024/01/24 08:04:25;;;;;;;4.05;2.13;;;;;;;16.32;32.60;93600.28;4842336;29;20038;-82
2024/01/24 08:06:51;;;;;;;4.25;2.03;;;;;;;17.25;30.66;93595.41;4842747;29;20740;-83
2024/01/24 08:09:17;;;;;;;3.05;1.30;;;;;;;17.49;30.02;93596.97;4842684;29;20517;-82
2024/01/24 08:11:43;;;;;;;1.73;1.00;;;;;;;17.68;28.94;93594.91;4826149;29;20045;-82
2024/01/24 08:14:09;;;;;;;2.25;0.95;;;;;;;17.15;28.30;93600.16;4842361;29;20026;-82
2024/01/24 08:16:34;;;;;;;3.75;2.08;;;;;;;16.93;30.10;93577.09;4825333;29;20038;-82
2024/01/24 08:19:00;;;;;;;2.63;1.60;;;;;;;15.51;31.00;93575.00;4840428;29;20519;-83
2024/01/24 08:21:27;;;;;;;2.42;1.50;;;;;;;16.02;32.17;93574.16;4841822;29;20034;-83
2024/01/24 08:23:53;;;;;;;3.35;1.75;;;;;;;16.50;31.71;93569.53;4825307;29;20060;-82
2024/01/24 08:26:19;;;;;;;6.15;1.80;;;;;;;18.06;27.94;93569.88;4826421;29;20030;-82
2024/01/24 08:28:44;;;;;;;4.75;1.80;;;;;;;17.94;29.08;93573.09;4826173;29;20087;-83
2024/01/24 08:31:11;;;;;;;2.65;1.48;;;;;;;18.52;27.99;93574.69;4825375;29;20145;-82
2024/01/24 08:33:37;;;;;;;0.98;0.90;;;;;;;19.15;25.87;93571.81;4824283;29;20452;-82
2024/01/24 08:36:03;;;;;;;1.98;1.17;;;;;;;19.59;24.71;93564.59;4837831;29;20044;-83
2024/01/24 08:38:30;;;;;;;2.03;1.10;;;;;;;20.71;23.83;93567.91;4823825;29;20054;-82
2024/01/24 08:40:55;;;;;;;1.70;1.10;;;;;;;20.69;23.34;93575.47;4824292;29;20542;-83
2024/01/24 08:43:21;;;;;;;2.95;1.30;;;;;;;21.30;23.33;93563.56;4840603;29;20042;-83
2024/01/24 08:45:53;;;;;;;2.45;1.58;;;;;;;22.43;22.80;93560.53;4823571;29;20046;-82
2024/01/24 08:48:20;;;;;;;1.55;1.00;;;;;;;22.21;21.39;93571.59;4841058;29;20034;-82
2024/01/24 08:50:45;;;;;;;2.67;1.30;;;;;;;23.54;20.29;93564.84;4838477;29;20052;-82
2024/01/24 08:53:11;;;;;;;2.92;1.50;;;;;;;23.15;21.18;93561.88;4826364;29;20042;-83
2024/01/24 08:55:36;;;;;;;7.63;3.35;;;;;;;22.01;24.44;93554.56;4833503;29;20075;-83
2024/01/24 08:58:02;;;;;;;3.63;1.40;;;;;;;22.18;21.61;93554.38;4821746;29;20122;-82
2024/01/24 09:00:28;;;;;;;4.72;2.60;;;;;;;20.76;23.99;93556.28;4838161;29;20437;-84
2024/01/24 09:02:53;;;;;;;7.10;3.75;;;;;;;21.05;25.72;93546.69;4840107;29;20038;-82
2024/01/24 09:05:20;;;;;;;4.60;2.30;;;;;;;20.61;25.12;93555.00;4840183;29;20038;-83
2024/01/24 09:07:46;;;;;;;1.30;0.90;;;;;;;19.93;24.25;93542.47;4839476;29;20034;-82
2024/01/24 09:10:12;;;;;;;3.22;1.13;;;;;;;19.12;24.90;93535.28;4823630;29;20023;-82
2024/01/24 09:12:38;;;;;;;4.00;2.40;;;;;;;18.37;27.07;93539.88;4843731;29;20053;-83
2024/01/24 09:15:04;;;;;;;2.15;1.30;;;;;;;18.77;26.45;93531.81;4835335;29;20441;-83
2024/01/24 09:17:30;;;;;;;4.38;2.65;;;;;;;19.73;25.89;93554.56;4842997;29;20038;-82
2024/01/24 09:19:55;;;;;;;8.02;3.90;;;;;;;17.52;30.45;93547.91;4842210;29;20395;-82
2024/01/24 09:22:21;;;;;;;5.55;3.67;;;;;;;17.06;31.70;93534.72;4842717;29;20042;-83
2024/01/24 09:24:46;;;;;;;8.30;4.13;;;;;;;17.38;31.11;93546.16;4825753;29;20548;-81
2024/01/24 09:27:12;;;;;;;5.38;3.05;;;;;;;17.16;30.48;93556.75;4842043;29;20045;-81
2024/01/24 09:29:38;;;;;;;4.80;3.10;;;;;;;16.71;31.53;93565.38;4839221;29;20038;-81
2024/01/24 09:32:04;;;;;;;6.18;3.90;;;;;;;17.10;31.32;93565.88;4841208;29;20253;-81
2024/01/24 09:34:29;;;;;;;6.20;3.65;;;;;;;16.44;32.61;93577.56;4842607;29;20042;-82
2024/01/24 09:36:55;;;;;;;6.30;3.60;;;;;;;14.81;35.22;93575.06;4843272;29;20054;-82
2024/01/24 09:39:21;;;;;;;6.78;3.70;;;;;;;14.92;35.30;93579.91;4842147;29;20048;-82
2024/01/24 09:41:50;;;;;;;5.22;2.83;;;;;;;14.75;35.23;93577.78;4842235;29;20050;-82
2024/01/24 09:44:16;;;;;;;6.28;3.10;;;;;;;15.64;33.65;93584.03;4841389;29;20045;-81
2024/01/24 09:46:42;;;;;;;6.05;3.80;;;;;;;15.44;35.94;93593.09;4826184;29;20035;-82
2024/01/24 09:49:09;;;;;;;4.93;2.50;;;;;;;15.72;34.13;93578.13;4837338;29;20071;-82
2024/01/24 09:51:36;;;;;;;2.25;1.48;;;;;;;16.74;30.61;93571.94;4841860;29;20033;-82
2024/01/24 09:54:05;;;;;;;1.70;1.10;;;;;;;17.84;28.47;93573.38;4839445;29;20030;-82
2024/01/24 09:56:36;;;;;;;3.15;1.70;;;;;;;17.14;29.37;93553.63;4821134;29;20030;-82
2024/01/24 09:59:10;;;;;;;5.40;2.30;;;;;;;17.74;28.68;93558.47;4837542;29;20652;-82
2024/01/24 10:01:40;;;;;;;6.80;3.40;;;;;;;16.62;32.04;93564.53;4827633;29;20108;-81
2024/01/24 10:04:08;;;;;;;;;;;;;;;15.95;34.98;93555.28;4848039;29;20026;-81
2024/01/24 10:06:57;;;;;;;7.25;4.95;;;;;;;14.93;36.71;93541.94;4842149;29;19999;-81
2024/01/24 10:09:25;;;;;;;10.05;5.78;;;;;;;14.21;40.57;93555.28;4838363;29;20073;-80
2024/01/24 10:11:51;;;;;;;10.27;5.80;;;;;;;13.65;41.88;93548.00;4828414;29;20049;-79
2024/01/24 10:14:18;;;;;;;11.70;5.82;;;;;;;13.07;44.22;93540.84;4845491;29;20041;-80
2024/01/24 10:16:43;;;;;;;10.23;5.43;;;;;;;13.39;42.46;93527.19;4846011;29;20125;-81
2024/01/24 10:19:14;;;;;;;8.00;5.00;;;;;;;13.56;42.21;93526.00;4846290;29;20086;-81
2024/01/24 10:21:49;;;;;;;11.15;6.00;;;;;;;13.56;43.76;93526.00;4839382;29;20030;-80
2024/01/24 10:24:19;;;;;;;11.38;6.30;;;;;;;13.07;45.64;93517.97;4828750;29;20206;-81
2024/01/24 10:26:46;;;;;;;11.07;6.10;;;;;;;13.09;46.33;93522.97;4845171;29;20046;-80
2024/01/24 10:29:25;;;;;;;8.65;5.70;;;;;;;13.33;45.64;93513.31;4814174;29;20046;-79
2024/01/24 10:31:56;;;;;;;9.90;5.60;;;;;;;13.36;43.94;93506.72;4842682;29;20041;-80
2024/01/24 10:34:27;;;;;;;7.63;5.20;;;;;;;13.32;42.54;93510.94;4825645;29;20423;-79
2024/01/24 10:36:53;;;;;;;7.53;5.20;;;;;;;13.07;43.15;93512.72;4843477;29;20058;-81
2024/01/24 10:39:27;;;;;;;7.38;5.15;;;;;;;13.53;42.00;93519.41;4845770;29;20101;-82
2024/01/24 10:41:54;;;;;;;10.68;4.68;;;;;;;13.63;40.90;93502.75;4828704;29;20073;-82
2024/01/24 10:44:25;;;;;;;5.72;3.40;;;;;;;13.66;39.50;93507.44;4844182;29;20046;-82
2024/01/24 10:46:57;;;;;;;5.00;1.98;;;;;;;13.84;38.31;93511.19;4844067;29;20414;-81
2024/01/24 10:49:24;;;;;;;5.40;3.50;;;;;;;14.17;38.71;93509.50;4835810;29;20118;-82
2024/01/24 10:51:50;;;;;;;5.95;4.10;;;;;;;14.13;38.60;93500.59;4811305;29;20294;-80
2024/01/24 10:54:22;;;;;;;4.88;3.42;;;;;;;13.72;38.75;93498.44;4843263;29;20461;-81
2024/01/24 10:56:50;;;;;;;5.07;3.28;;;;;;;13.60;38.59;93493.59;4845038;29;20070;-82
2024/01/24 10:59:31;;;;;;;5.60;2.83;;;;;;;14.13;37.72;93482.94;4843596;29;20033;-83
2024/01/24 11:02:01;;;;;;;2.15;1.30;;;;;;;13.75;36.85;93476.81;4844112;29;20037;-83
2024/01/24 11:05:00;;;;;;;3.30;1.30;;;;;;;14.01;37.01;93487.06;4836023;29;20250;-82
2024/01/24 11:08:07;;;;;;;2.80;1.40;;;;;;;14.36;36.03;93470.00;4841568;29;20452;-81
2024/01/24 11:10:35;;;;;;;4.13;2.42;;;;;;;14.67;36.83;93473.00;4812668;29;20050;-81
2024/01/24 11:13:07;;;;;;;6.95;4.20;;;;;;;14.55;38.52;93462.91;4843912;29;20065;-81
2024/01/24 11:15:35;;;;;;;7.18;3.40;;;;;;;14.36;37.76;93460.25;4841458;29;20033;-82
2024/01/24 11:18:20;;;;;;;9.30;4.63;;;;;;;13.94;38.49;93461.88;4833815;29;20040;-82
2024/01/24 11:20:57;;;;;;;9.07;5.13;;;;;;;13.96;40.49;93474.75;4825390;29;20037;-80
2024/01/24 11:23:54;;;;;;;9.55;4.93;;;;;;;13.60;41.67;93474.38;4841953;29;20029;-80
2024/01/24 11:26:21;;;;;;;6.90;3.92;;;;;;;13.72;39.50;93469.50;4832390;29;20155;-82
2024/01/24 11:28:48;;;;;;;7.93;4.38;;;;;;;13.72;40.82;93451.88;4845673;29;20073;-83
2024/01/24 11:31:36;;;;;;;7.82;3.65;;;;;;;14.12;40.52;93460.31;4843717;29;20042;-81
2024/01/24 11:34:15;;;;;;;5.95;2.95;;;;;;;14.49;38.80;93455.31;4843009;29;20125;-82
2024/01/24 11:36:44;;;;;;;8.02;3.92;;;;;;;14.45;38.78;93456.97;4841234;29;20050;-82
2024/01/24 11:39:39;;;;;;;5.55;3.10;;;;;;;14.41;37.79;93448.06;4841579;29;20073;-82